sensor_id;sensor_type;location;lat;lon;timestamp;pressure;altitude;pressure_sealevel;temperature;humidity
59289;BME280;45056;47.602;9.886;2023-04-27T00:02:18;92938.84;;;10.67;54.56
59289;BME280;45056;47.602;9.886;2023-04-27T00:04:46;92936.09;;;10.67;54.30
59289;BME280;45056;47.602;9.886;2023-04-27T00:07:14;92937.31;;;10.66;54.12
59289;BME280;45056;47.602;9.886;2023-04-27T00:09:42;92936.53;;;10.65;53.84
59289;BME280;45056;47.602;9.886;2023-04-27T00:12:10;92932.31;;;10.64;53.62
59289;BME280;45056;47.602;9.886;2023-04-27T00:14:39;92937.75;;;10.64;53.41
59289;BME280;45056;47.602;9.886;2023-04-27T00:17:07;92938.19;;;10.63;53.30
59289;BME280;45056;47.602;9.886;2023-04-27T00:19:35;92940.91;;;10.63;53.22
59289;BME280;45056;47.602;9.886;2023-04-27T00:22:03;92935.47;;;10.63;53.38
59289;BME280;45056;47.602;9.886;2023-04-27T00:24:31;92925.03;;;10.61;53.52
59289;BME280;45056;47.602;9.886;2023-04-27T00:26:59;92936.69;;;10.62;53.58
59289;BME280;45056;47.602;9.886;2023-04-27T00:29:28;92928.16;;;10.60;53.80
59289;BME280;45056;47.602;9.886;2023-04-27T00:31:57;92925.44;;;10.60;53.80
59289;BME280;45056;47.602;9.886;2023-04-27T00:34:25;92930.56;;;10.58;53.94
59289;BME280;45056;47.602;9.886;2023-04-27T00:36:53;92933.75;;;10.56;53.98
59289;BME280;45056;47.602;9.886;2023-04-27T00:39:21;92924.50;;;10.53;54.33
59289;BME280;45056;47.602;9.886;2023-04-27T00:41:49;92930.81;;;10.50;54.63
59289;BME280;45056;47.602;9.886;2023-04-27T00:44:22;92930.50;;;10.48;55.17
59289;BME280;45056;47.602;9.886;2023-04-27T00:46:51;92929.00;;;10.47;55.65
59289;BME280;45056;47.602;9.886;2023-04-27T00:49:21;92922.47;;;10.45;56.17
59289;BME280;45056;47.602;9.886;2023-04-27T00:51:50;92924.13;;;10.42;56.48
59289;BME280;45056;47.602;9.886;2023-04-27T00:54:19;92921.63;;;10.35;56.80
59289;BME280;45056;47.602;9.886;2023-04-27T00:56:48;92922.94;;;10.30;57.29
59289;BME280;45056;47.602;9.886;2023-04-27T00:59:18;92921.97;;;10.24;57.73
59289;BME280;45056;47.602;9.886;2023-04-27T01:01:47;92924.38;;;10.22;58.05
59289;BME280;45056;47.602;9.886;2023-04-27T01:04:16;92925.56;;;10.21;58.25
59289;BME280;45056;47.602;9.886;2023-04-27T01:06:45;92924.94;;;10.17;58.56
59289;BME280;45056;47.602;9.886;2023-04-27T01:09:13;92921.56;;;10.13;58.58
59289;BME280;45056;47.602;9.886;2023-04-27T01:11:45;92918.66;;;10.07;58.57
59289;BME280;45056;47.602;9.886;2023-04-27T01:14:13;92916.81;;;10.04;58.83
59289;BME280;45056;47.602;9.886;2023-04-27T01:16:42;92916.16;;;10.00;59.03
59289;BME280;45056;47.602;9.886;2023-04-27T01:19:11;92919.75;;;9.96;59.23
59289;BME280;45056;47.602;9.886;2023-04-27T01:21:40;92926.38;;;9.95;59.26
59289;BME280;45056;47.602;9.886;2023-04-27T01:24:09;92919.41;;;9.94;59.39
59289;BME280;45056;47.602;9.886;2023-04-27T01:26:37;92925.16;;;9.96;59.53
59289;BME280;45056;47.602;9.886;2023-04-27T01:29:05;92922.44;;;9.96;59.73
59289;BME280;45056;47.602;9.886;2023-04-27T01:31:33;92919.75;;;9.96;59.83
59289;BME280;45056;47.602;9.886;2023-04-27T01:34:01;92930.59;;;9.96;59.93
59289;BME280;45056;47.602;9.886;2023-04-27T01:36:29;92927.88;;;9.96;60.11
59289;BME280;45056;47.602;9.886;2023-04-27T01:38:58;92934.84;;;9.98;60.33
59289;BME280;45056;47.602;9.886;2023-04-27T01:41:27;92932.13;;;9.98;60.48
59289;BME280;45056;47.602;9.886;2023-04-27T01:43:55;92930.97;;;9.99;60.40
59289;BME280;45056;47.602;9.886;2023-04-27T01:46:23;92941.84;;;9.99;60.56
59289;BME280;45056;47.602;9.886;2023-04-27T01:48:52;92941.06;;;9.98;60.84
59289;BME280;45056;47.602;9.886;2023-04-27T01:51:20;92939.53;;;9.97;60.91
59289;BME280;45056;47.602;9.886;2023-04-27T01:53:48;92936.91;;;9.93;61.24
59289;BME280;45056;47.602;9.886;2023-04-27T01:56:16;92940.09;;;9.92;61.29
59289;BME280;45056;47.602;9.886;2023-04-27T01:58:45;92940.09;;;9.92;61.22
59289;BME280;45056;47.602;9.886;2023-04-27T02:01:13;92941.28;;;9.91;61.44
59289;BME280;45056;47.602;9.886;2023-04-27T02:03:41;92944.75;;;9.91;61.52
59289;BME280;45056;47.602;9.886;2023-04-27T02:06:09;92942.03;;;9.91;61.39
59289;BME280;45056;47.602;9.886;2023-04-27T02:08:37;92943.56;;;9.92;61.50
59289;BME280;45056;47.602;9.886;2023-04-27T02:11:05;92936.91;;;9.93;61.68
59289;BME280;45056;47.602;9.886;2023-04-27T02:13:33;92948.13;;;9.95;61.44
59289;BME280;45056;47.602;9.886;2023-04-27T02:16:03;92942.25;;;9.97;61.30
59289;BME280;45056;47.602;9.886;2023-04-27T02:18:31;92941.84;;;9.99;61.46
59289;BME280;45056;47.602;9.886;2023-04-27T02:21:00;92948.44;;;9.98;61.78
59289;BME280;45056;47.602;9.886;2023-04-27T02:23:28;92947.78;;;9.93;61.59
59289;BME280;45056;47.602;9.886;2023-04-27T02:25:56;92945.53;;;9.92;61.51
59289;BME280;45056;47.602;9.886;2023-04-27T02:28:24;92955.19;;;9.93;61.65
59289;BME280;45056;47.602;9.886;2023-04-27T02:30:52;92949.44;;;9.91;62.04
59289;BME280;45056;47.602;9.886;2023-04-27T02:33:22;92950.63;;;9.90;61.78
59289;BME280;45056;47.602;9.886;2023-04-27T02:35:50;92943.69;;;9.89;61.79
59289;BME280;45056;47.602;9.886;2023-04-27T02:38:18;92946.81;;;9.87;61.81
59289;BME280;45056;47.602;9.886;2023-04-27T02:40:52;92952.25;;;9.87;61.81
59289;BME280;45056;47.602;9.886;2023-04-27T02:43:21;92954.66;;;9.85;62.12
59289;BME280;45056;47.602;9.886;2023-04-27T02:45:49;92957.38;;;9.85;62.30
59289;BME280;45056;47.602;9.886;2023-04-27T02:48:17;92960.88;;;9.86;62.08
59289;BME280;45056;47.602;9.886;2023-04-27T02:50:47;92953.78;;;9.88;62.04
59289;BME280;45056;47.602;9.886;2023-04-27T02:53:15;92960.72;;;9.89;62.26
59289;BME280;45056;47.602;9.886;2023-04-27T02:55:45;92951.38;;;9.90;62.44
59289;BME280;45056;47.602;9.886;2023-04-27T02:58:14;92945.94;;;9.90;62.41
59289;BME280;45056;47.602;9.886;2023-04-27T03:00:43;92951.38;;;9.90;62.42
59289;BME280;45056;47.602;9.886;2023-04-27T03:03:11;92949.88;;;9.89;62.15
59289;BME280;45056;47.602;9.886;2023-04-27T03:05:39;92949.13;;;9.89;62.25
59289;BME280;45056;47.602;9.886;2023-04-27T03:08:08;92950.63;;;9.90;62.19
59289;BME280;45056;47.602;9.886;2023-04-27T03:10:36;92941.28;;;9.91;62.05
59289;BME280;45056;47.602;9.886;2023-04-27T03:13:04;92947.47;;;9.91;62.03
59289;BME280;45056;47.602;9.886;2023-04-27T03:15:32;92942.81;;;9.92;61.84
59289;BME280;45056;47.602;9.886;2023-04-27T03:18:01;92952.81;;;9.95;61.95
59289;BME280;45056;47.602;9.886;2023-04-27T03:20:29;92955.06;;;9.96;61.92
59289;BME280;45056;47.602;9.886;2023-04-27T03:22:57;92957.47;;;9.94;61.88
59289;BME280;45056;47.602;9.886;2023-04-27T03:25:26;92956.72;;;9.94;61.97
59289;BME280;45056;47.602;9.886;2023-04-27T03:27:54;92957.91;;;9.93;61.89
59289;BME280;45056;47.602;9.886;2023-04-27T03:30:22;92966.06;;;9.93;61.54
59289;BME280;45056;47.602;9.886;2023-04-27T03:32:50;92966.81;;;9.93;61.36
59289;BME280;45056;47.602;9.886;2023-04-27T03:35:18;92966.06;;;9.93;61.36
59289;BME280;45056;47.602;9.886;2023-04-27T03:37:47;92973.03;;;9.94;61.53
59289;BME280;45056;47.602;9.886;2023-04-27T03:40:15;92963.69;;;9.95;61.63
59289;BME280;45056;47.602;9.886;2023-04-27T03:42:44;92963.69;;;9.95;61.78
59289;BME280;45056;47.602;9.886;2023-04-27T03:45:12;92957.16;;;9.92;61.78
59289;BME280;45056;47.602;9.886;2023-04-27T03:47:41;92961.94;;;9.88;61.83
59289;BME280;45056;47.602;9.886;2023-04-27T03:50:09;92954.66;;;9.85;61.94
59289;BME280;45056;47.602;9.886;2023-04-27T03:52:37;92956.28;;;9.82;61.99
59289;BME280;45056;47.602;9.886;2023-04-27T03:55:06;92956.72;;;9.81;61.76
59289;BME280;45056;47.602;9.886;2023-04-27T03:57:34;92963.34;;;9.80;61.88
59289;BME280;45056;47.602;9.886;2023-04-27T04:00:05;92967.59;;;9.81;61.88
59289;BME280;45056;47.602;9.886;2023-04-27T04:02:36;92973.78;;;9.81;61.74
59289;BME280;45056;47.602;9.886;2023-04-27T04:05:05;92967.59;;;9.81;61.83
59289;BME280;45056;47.602;9.886;2023-04-27T04:07:33;92976.16;;;9.79;62.07
59289;BME280;45056;47.602;9.886;2023-04-27T04:10:01;92972.38;;;9.77;62.21
59289;BME280;45056;47.602;9.886;2023-04-27T04:12:29;92973.25;;;9.74;62.31
59289;BME280;45056;47.602;9.886;2023-04-27T04:14:57;92969.03;;;9.73;62.55
59289;BME280;45056;47.602;9.886;2023-04-27T04:17:27;92975.31;;;9.70;62.64
59289;BME280;45056;47.602;9.886;2023-04-27T04:19:55;92975.31;;;9.70;62.74
59289;BME280;45056;47.602;9.886;2023-04-27T04:22:23;92974.56;;;9.69;62.90
59289;BME280;45056;47.602;9.886;2023-04-27T04:24:51;92983.03;;;9.71;62.76
59289;BME280;45056;47.602;9.886;2023-04-27T04:27:19;92979.44;;;9.74;62.76
59289;BME280;45056;47.602;9.886;2023-04-27T04:29:47;92975.09;;;9.77;62.66
59289;BME280;45056;47.602;9.886;2023-04-27T04:32:15;92985.84;;;9.80;62.60
59289;BME280;45056;47.602;9.886;2023-04-27T04:34:49;92980.00;;;9.82;62.49
59289;BME280;45056;47.602;9.886;2023-04-27T04:37:17;92985.75;;;9.84;62.29
59289;BME280;45056;47.602;9.886;2023-04-27T04:39:45;92975.97;;;9.87;62.27
59289;BME280;45056;47.602;9.886;2023-04-27T04:42:13;92974.78;;;9.88;61.99
59289;BME280;45056;47.602;9.886;2023-04-27T04:44:41;92977.03;;;9.89;61.86
59289;BME280;45056;47.602;9.886;2023-04-27T04:47:10;92978.25;;;9.88;61.77
59289;BME280;45056;47.602;9.886;2023-04-27T04:49:38;92986.41;;;9.88;61.85
59289;BME280;45056;47.602;9.886;2023-04-27T04:52:07;92975.53;;;9.88;61.73
59289;BME280;45056;47.602;9.886;2023-04-27T04:54:35;92975.97;;;9.87;61.67
59289;BME280;45056;47.602;9.886;2023-04-27T04:57:04;92977.91;;;9.86;61.64
59289;BME280;45056;47.602;9.886;2023-04-27T04:59:33;92980.22;;;9.88;61.69
59289;BME280;45056;47.602;9.886;2023-04-27T05:02:01;92987.59;;;9.87;61.80
59289;BME280;45056;47.602;9.886;2023-04-27T05:04:29;92979.75;;;9.89;61.88
59289;BME280;45056;47.602;9.886;2023-04-27T05:06:58;92990.63;;;9.89;61.73
59289;BME280;45056;47.602;9.886;2023-04-27T05:09:28;92977.03;;;9.89;61.80
59289;BME280;45056;47.602;9.886;2023-04-27T05:11:56;92984.31;;;9.92;61.84
59289;BME280;45056;47.602;9.886;2023-04-27T05:14:24;92981.94;;;9.94;61.78
59289;BME280;45056;47.602;9.886;2023-04-27T05:16:52;92988.47;;;9.97;61.51
59289;BME280;45056;47.602;9.886;2023-04-27T05:19:20;92987.25;;;9.98;61.37
59289;BME280;45056;47.602;9.886;2023-04-27T05:21:48;92984.88;;;10.00;61.41
59289;BME280;45056;47.602;9.886;2023-04-27T05:24:16;92989.00;;;10.05;61.48
59289;BME280;45056;47.602;9.886;2023-04-27T05:26:46;92986.94;;;10.09;61.67
59289;BME280;45056;47.602;9.886;2023-04-27T05:29:14;92979.09;;;10.11;61.43
59289;BME280;45056;47.602;9.886;2023-04-27T05:31:42;92981.25;;;10.16;61.28
59289;BME280;45056;47.602;9.886;2023-04-27T05:34:11;92982.22;;;10.22;61.24
59289;BME280;45056;47.602;9.886;2023-04-27T05:36:39;92979.63;;;10.32;61.05
59289;BME280;45056;47.602;9.886;2023-04-27T05:39:07;92982.31;;;10.45;60.64
59289;BME280;45056;47.602;9.886;2023-04-27T05:41:36;92976.81;;;10.58;60.46
59289;BME280;45056;47.602;9.886;2023-04-27T05:44:06;92977.66;;;10.67;60.07
59289;BME280;45056;47.602;9.886;2023-04-27T05:46:35;92974.28;;;10.76;59.78
59289;BME280;45056;47.602;9.886;2023-04-27T05:49:03;92978.41;;;10.81;59.76
59289;BME280;45056;47.602;9.886;2023-04-27T05:51:31;92975.53;;;10.85;59.80
59289;BME280;45056;47.602;9.886;2023-04-27T05:53:59;92970.09;;;10.85;59.92
59289;BME280;45056;47.602;9.886;2023-04-27T05:56:28;92970.56;;;10.83;59.81
59289;BME280;45056;47.602;9.886;2023-04-27T05:58:55;92981.88;;;10.81;60.09
59289;BME280;45056;47.602;9.886;2023-04-27T06:01:25;92981.13;;;10.81;60.16
59289;BME280;45056;47.602;9.886;2023-04-27T06:03:54;92970.97;;;10.81;60.32
59289;BME280;45056;47.602;9.886;2023-04-27T06:06:26;92975.22;;;10.82;60.47
59289;BME280;45056;47.602;9.886;2023-04-27T06:08:57;92987.94;;;10.86;60.21
59289;BME280;45056;47.602;9.886;2023-04-27T06:11:25;92986.41;;;10.85;60.05
59289;BME280;45056;47.602;9.886;2023-04-27T06:13:53;92987.31;;;10.81;59.80
59289;BME280;45056;47.602;9.886;2023-04-27T06:16:22;92999.41;;;10.80;59.79
59289;BME280;45056;47.602;9.886;2023-04-27T06:18:51;92990.91;;;10.78;59.61
59289;BME280;45056;47.602;9.886;2023-04-27T06:21:19;92995.16;;;10.79;59.60
59289;BME280;45056;47.602;9.886;2023-04-27T06:23:48;93006.66;;;10.83;59.53
59289;BME280;45056;47.602;9.886;2023-04-27T06:26:16;93004.59;;;10.88;59.52
59289;BME280;45056;47.602;9.886;2023-04-27T06:28:44;93005.22;;;10.92;59.57
59289;BME280;45056;47.602;9.886;2023-04-27T06:31:12;93004.03;;;10.93;59.13
59289;BME280;45056;47.602;9.886;2023-04-27T06:33:40;93009.81;;;10.95;59.15
59289;BME280;45056;47.602;9.886;2023-04-27T06:36:09;93012.06;;;10.96;59.21
59289;BME280;45056;47.602;9.886;2023-04-27T06:38:38;93010.13;;;10.97;59.00
59289;BME280;45056;47.602;9.886;2023-04-27T06:41:06;93006.94;;;10.99;58.91
59289;BME280;45056;47.602;9.886;2023-04-27T06:43:34;93003.00;;;11.00;58.54
59289;BME280;45056;47.602;9.886;2023-04-27T06:46:02;93006.06;;;11.02;58.38
59289;BME280;45056;47.602;9.886;2023-04-27T06:48:31;93005.63;;;11.03;58.45
59289;BME280;45056;47.602;9.886;2023-04-27T06:50:59;93007.47;;;11.06;58.30
59289;BME280;45056;47.602;9.886;2023-04-27T06:53:29;93015.94;;;11.08;58.20
59289;BME280;45056;47.602;9.886;2023-04-27T06:55:57;93016.56;;;11.13;58.34
59289;BME280;45056;47.602;9.886;2023-04-27T06:58:25;93020.69;;;11.17;58.44
59289;BME280;45056;47.602;9.886;2023-04-27T07:00:53;93023.28;;;11.21;58.64
59289;BME280;45056;47.602;9.886;2023-04-27T07:03:21;93020.56;;;11.21;58.52
59289;BME280;45056;47.602;9.886;2023-04-27T07:05:49;93031.13;;;11.19;59.02
59289;BME280;45056;47.602;9.886;2023-04-27T07:08:18;93035.06;;;11.18;59.37
59289;BME280;45056;47.602;9.886;2023-04-27T07:10:47;93037.47;;;11.16;59.93
59289;BME280;45056;47.602;9.886;2023-04-27T07:13:15;93043.69;;;11.16;60.45
59289;BME280;45056;47.602;9.886;2023-04-27T07:15:43;93039.00;;;11.17;60.75
59289;BME280;45056;47.602;9.886;2023-04-27T07:18:11;93039.75;;;11.17;60.91
59289;BME280;45056;47.602;9.886;2023-04-27T07:20:40;93031.91;;;11.19;61.15
59289;BME280;45056;47.602;9.886;2023-04-27T07:23:08;93044.44;;;11.17;61.53
59289;BME280;45056;47.602;9.886;2023-04-27T07:25:36;93032.34;;;11.18;61.77
59289;BME280;45056;47.602;9.886;2023-04-27T07:28:07;93033.84;;;11.19;61.90
59289;BME280;45056;47.602;9.886;2023-04-27T07:30:35;93038.41;;;11.22;62.13
59289;BME280;45056;47.602;9.886;2023-04-27T07:33:03;93042.44;;;11.30;62.31
59289;BME280;45056;47.602;9.886;2023-04-27T07:35:32;93036.72;;;11.37;62.36
59289;BME280;45056;47.602;9.886;2023-04-27T07:38:00;93041.59;;;11.43;62.28
59289;BME280;45056;47.602;9.886;2023-04-27T07:40:29;93039.19;;;11.45;62.13
59289;BME280;45056;47.602;9.886;2023-04-27T07:42:58;93041.47;;;11.46;62.23
59289;BME280;45056;47.602;9.886;2023-04-27T07:45:27;93044.19;;;11.46;62.30
59289;BME280;45056;47.602;9.886;2023-04-27T07:47:59;93040.69;;;11.46;61.98
59289;BME280;45056;47.602;9.886;2023-04-27T07:50:28;93036.34;;;11.48;61.79
59289;BME280;45056;47.602;9.886;2023-04-27T07:52:56;93045.03;;;11.56;62.11
59289;BME280;45056;47.602;9.886;2023-04-27T07:55:25;93041.88;;;11.67;62.05
59289;BME280;45056;47.602;9.886;2023-04-27T07:57:55;93038.75;;;11.78;61.93
59289;BME280;45056;47.602;9.886;2023-04-27T08:00:24;93041.28;;;11.94;61.81
59289;BME280;45056;47.602;9.886;2023-04-27T08:02:54;93048.66;;;12.16;61.96
59289;BME280;45056;47.602;9.886;2023-04-27T08:05:22;93049.31;;;12.30;61.05
59289;BME280;45056;47.602;9.886;2023-04-27T08:07:50;93053.16;;;12.41;60.83
59289;BME280;45056;47.602;9.886;2023-04-27T08:10:19;93061.66;;;12.53;60.98
59289;BME280;45056;47.602;9.886;2023-04-27T08:12:48;93061.66;;;12.62;60.51
59289;BME280;45056;47.602;9.886;2023-04-27T08:15:16;93058.97;;;12.72;59.48
59289;BME280;45056;47.602;9.886;2023-04-27T08:17:44;93055.94;;;12.79;58.66
59289;BME280;45056;47.602;9.886;2023-04-27T08:20:14;93057.63;;;12.86;58.65
59289;BME280;45056;47.602;9.886;2023-04-27T08:22:42;93057.94;;;12.88;58.25
59289;BME280;45056;47.602;9.886;2023-04-27T08:25:10;93060.06;;;12.93;58.31
59289;BME280;45056;47.602;9.886;2023-04-27T08:27:38;93065.22;;;13.09;58.37
59289;BME280;45056;47.602;9.886;2023-04-27T08:30:07;93064.31;;;13.31;57.90
59289;BME280;45056;47.602;9.886;2023-04-27T08:32:36;93061.13;;;13.42;57.46
59289;BME280;45056;47.602;9.886;2023-04-27T08:35:05;93056.09;;;13.40;57.48
59289;BME280;45056;47.602;9.886;2023-04-27T08:37:35;93059.44;;;13.35;57.44
59289;BME280;45056;47.602;9.886;2023-04-27T08:40:04;93051.88;;;13.30;57.82
59289;BME280;45056;47.602;9.886;2023-04-27T08:42:35;93058.09;;;13.31;58.16
59289;BME280;45056;47.602;9.886;2023-04-27T08:45:06;93050.94;;;13.33;58.31
59289;BME280;45056;47.602;9.886;2023-04-27T08:47:35;93060.66;;;13.34;58.32
59289;BME280;45056;47.602;9.886;2023-04-27T08:50:05;93057.50;;;13.36;58.53
59289;BME280;45056;47.602;9.886;2023-04-27T08:52:36;93054.59;;;13.39;59.14
59289;BME280;45056;47.602;9.886;2023-04-27T08:55:05;93060.34;;;13.41;58.79
59289;BME280;45056;47.602;9.886;2023-04-27T08:57:34;93052.94;;;13.42;59.29
59289;BME280;45056;47.602;9.886;2023-04-27T09:00:03;93056.28;;;13.46;59.10
59289;BME280;45056;47.602;9.886;2023-04-27T09:02:45;93053.09;;;13.57;58.25
59289;BME280;45056;47.602;9.886;2023-04-27T09:05:16;93061.28;;;13.66;58.08
59289;BME280;45056;47.602;9.886;2023-04-27T09:08:03;93053.81;;;13.76;57.78
59289;BME280;45056;47.602;9.886;2023-04-27T09:10:44;93055.47;;;13.83;56.39
59289;BME280;45056;47.602;9.886;2023-04-27T09:13:13;93051.97;;;13.92;55.78
59289;BME280;45056;47.602;9.886;2023-04-27T09:15:43;93050.66;;;14.11;56.36
59289;BME280;45056;47.602;9.886;2023-04-27T09:18:15;93042.72;;;14.56;55.71
59289;BME280;45056;47.602;9.886;2023-04-27T09:20:45;93048.28;;;14.96;53.22
59289;BME280;45056;47.602;9.886;2023-04-27T09:23:28;93044.75;;;15.20;52.37
59289;BME280;45056;47.602;9.886;2023-04-27T09:25:59;93052.94;;;15.29;51.21
59289;BME280;45056;47.602;9.886;2023-04-27T09:28:30;93041.38;;;15.25;50.86
59289;BME280;45056;47.602;9.886;2023-04-27T09:31:01;93043.25;;;15.19;51.27
59289;BME280;45056;47.602;9.886;2023-04-27T09:33:32;93038.31;;;15.08;51.27
59289;BME280;45056;47.602;9.886;2023-04-27T09:36:05;93037.31;;;14.96;51.46
59289;BME280;45056;47.602;9.886;2023-04-27T09:38:35;93037.09;;;14.84;52.18
59289;BME280;45056;47.602;9.886;2023-04-27T09:41:03;93034.59;;;14.71;53.17
59289;BME280;45056;47.602;9.886;2023-04-27T09:43:31;93038.09;;;14.72;53.61
59289;BME280;45056;47.602;9.886;2023-04-27T09:45:59;93035.94;;;14.76;53.83
59289;BME280;45056;47.602;9.886;2023-04-27T09:48:30;93038.03;;;14.81;53.65
59289;BME280;45056;47.602;9.886;2023-04-27T09:50:58;93033.25;;;14.91;53.72
59289;BME280;45056;47.602;9.886;2023-04-27T09:53:32;93028.56;;;15.07;52.93
59289;BME280;45056;47.602;9.886;2023-04-27T09:56:19;93027.56;;;15.19;51.94
59289;BME280;45056;47.602;9.886;2023-04-27T10:01:59;93026.63;;;15.22;51.60
59289;BME280;45056;47.602;9.886;2023-04-27T10:04:50;93030.78;;;15.18;51.43
59289;BME280;45056;47.602;9.886;2023-04-27T10:07:37;93024.16;;;15.09;51.04
59289;BME280;45056;47.602;9.886;2023-04-27T10:10:15;93030.09;;;15.08;50.85
59289;BME280;45056;47.602;9.886;2023-04-27T10:12:55;93021.31;;;15.19;50.37
59289;BME280;45056;47.602;9.886;2023-04-27T10:15:28;93036.13;;;15.36;50.68
59289;BME280;45056;47.602;9.886;2023-04-27T10:18:03;93034.81;;;15.62;50.74
59289;BME280;45056;47.602;9.886;2023-04-27T10:20:36;93025.91;;;15.82;49.66
59289;BME280;45056;47.602;9.886;2023-04-27T10:23:06;93033.78;;;15.89;49.17
59289;BME280;45056;47.602;9.886;2023-04-27T10:25:39;93024.63;;;15.92;49.31
59289;BME280;45056;47.602;9.886;2023-04-27T10:28:14;93017.63;;;15.91;48.14
59289;BME280;45056;47.602;9.886;2023-04-27T10:30:45;93025.66;;;15.95;46.72
59289;BME280;45056;47.602;9.886;2023-04-27T10:33:18;93025.00;;;16.00;47.02
59289;BME280;45056;47.602;9.886;2023-04-27T10:35:56;93026.69;;;16.12;46.99
59289;BME280;45056;47.602;9.886;2023-04-27T10:38:29;93024.66;;;16.28;47.17
59289;BME280;45056;47.602;9.886;2023-04-27T10:41:01;93020.75;;;16.50;46.85
59289;BME280;45056;47.602;9.886;2023-04-27T10:43:34;93018.97;;;16.67;45.59
59289;BME280;45056;47.602;9.886;2023-04-27T10:46:09;93022.63;;;16.79;46.31
59289;BME280;45056;47.602;9.886;2023-04-27T10:48:39;93021.53;;;16.92;44.42
59289;BME280;45056;47.602;9.886;2023-04-27T10:51:09;93025.88;;;16.98;43.92
59289;BME280;45056;47.602;9.886;2023-04-27T10:53:42;93021.81;;;17.14;44.10
59289;BME280;45056;47.602;9.886;2023-04-27T10:56:11;93021.72;;;17.29;44.15
59289;BME280;45056;47.602;9.886;2023-04-27T10:58:39;93021.44;;;17.48;43.74
59289;BME280;45056;47.602;9.886;2023-04-27T11:01:08;93022.03;;;17.58;42.76
59289;BME280;45056;47.602;9.886;2023-04-27T11:03:36;93019.03;;;17.56;41.72
59289;BME280;45056;47.602;9.886;2023-04-27T11:06:05;93018.06;;;17.38;42.24
59289;BME280;45056;47.602;9.886;2023-04-27T11:08:42;93016.66;;;17.22;41.88
59289;BME280;45056;47.602;9.886;2023-04-27T11:11:15;93007.53;;;17.10;42.62
59289;BME280;45056;47.602;9.886;2023-04-27T11:13:43;93021.97;;;17.05;42.99
59289;BME280;45056;47.602;9.886;2023-04-27T11:16:12;93016.47;;;17.05;42.90
59289;BME280;45056;47.602;9.886;2023-04-27T11:18:40;93013.03;;;17.10;42.76
59289;BME280;45056;47.602;9.886;2023-04-27T11:21:11;93016.72;;;17.28;43.11
59289;BME280;45056;47.602;9.886;2023-04-27T11:23:43;93018.88;;;17.44;42.25
59289;BME280;45056;47.602;9.886;2023-04-27T11:26:15;93022.19;;;17.49;42.29
59289;BME280;45056;47.602;9.886;2023-04-27T11:28:56;93019.75;;;17.56;41.99
59289;BME280;45056;47.602;9.886;2023-04-27T11:31:27;93025.06;;;17.60;41.31
59289;BME280;45056;47.602;9.886;2023-04-27T11:34:05;93017.59;;;17.66;42.46
59289;BME280;45056;47.602;9.886;2023-04-27T11:36:36;93019.88;;;17.68;41.66
59289;BME280;45056;47.602;9.886;2023-04-27T11:39:04;93027.09;;;17.65;41.55
59289;BME280;45056;47.602;9.886;2023-04-27T11:41:35;93016.38;;;17.67;42.12
59289;BME280;45056;47.602;9.886;2023-04-27T11:44:06;93018.91;;;17.71;41.56
59289;BME280;45056;47.602;9.886;2023-04-27T11:46:36;93025.66;;;17.70;41.63
59289;BME280;45056;47.602;9.886;2023-04-27T11:49:07;93016.31;;;17.62;41.93
59289;BME280;45056;47.602;9.886;2023-04-27T11:51:35;93020.25;;;17.55;41.80
59289;BME280;45056;47.602;9.886;2023-04-27T11:54:05;93015.22;;;17.53;42.02
59289;BME280;45056;47.602;9.886;2023-04-27T11:56:38;93020.25;;;17.55;42.66
59289;BME280;45056;47.602;9.886;2023-04-27T11:59:17;93019.63;;;17.66;42.62
59289;BME280;45056;47.602;9.886;2023-04-27T12:01:46;93024.75;;;17.79;42.33
59289;BME280;45056;47.602;9.886;2023-04-27T12:04:15;93024.84;;;17.90;41.98
59289;BME280;45056;47.602;9.886;2023-04-27T12:06:43;93018.69;;;18.01;41.06
59289;BME280;45056;47.602;9.886;2023-04-27T12:09:11;93023.28;;;18.10;41.34
59289;BME280;45056;47.602;9.886;2023-04-27T12:11:40;93020.34;;;18.19;41.33
59289;BME280;45056;47.602;9.886;2023-04-27T12:14:08;93015.16;;;18.27;41.07
59289;BME280;45056;47.602;9.886;2023-04-27T12:16:36;93009.44;;;18.36;40.90
59289;BME280;45056;47.602;9.886;2023-04-27T12:19:05;93017.25;;;18.43;40.32
59289;BME280;45056;47.602;9.886;2023-04-27T12:21:33;93010.00;;;18.46;40.03
59289;BME280;45056;47.602;9.886;2023-04-27T12:24:01;93012.53;;;18.50;40.31
59289;BME280;45056;47.602;9.886;2023-04-27T12:26:29;93016.56;;;18.54;40.30
59289;BME280;45056;47.602;9.886;2023-04-27T12:28:58;93011.09;;;18.66;40.37
59289;BME280;45056;47.602;9.886;2023-04-27T12:31:26;93010.16;;;18.74;38.94
59289;BME280;45056;47.602;9.886;2023-04-27T12:33:54;93016.91;;;18.73;38.19
59289;BME280;45056;47.602;9.886;2023-04-27T12:36:22;93017.41;;;18.72;38.65
59289;BME280;45056;47.602;9.886;2023-04-27T12:38:56;93011.88;;;18.72;39.01
59289;BME280;45056;47.602;9.886;2023-04-27T12:41:25;93008.63;;;18.68;38.90
59289;BME280;45056;47.602;9.886;2023-04-27T12:43:53;93011.56;;;18.58;39.11
59289;BME280;45056;47.602;9.886;2023-04-27T12:46:23;93010.78;;;18.52;38.89
59289;BME280;45056;47.602;9.886;2023-04-27T12:48:51;93013.03;;;18.48;38.91
59289;BME280;45056;47.602;9.886;2023-04-27T12:51:19;93009.50;;;18.42;39.34
59289;BME280;45056;47.602;9.886;2023-04-27T12:53:47;92996.50;;;18.48;39.77
59289;BME280;45056;47.602;9.886;2023-04-27T12:56:15;92998.56;;;18.59;39.35
59289;BME280;45056;47.602;9.886;2023-04-27T12:58:43;92996.09;;;18.67;38.88
59289;BME280;45056;47.602;9.886;2023-04-27T13:01:12;92995.88;;;18.70;38.33
59289;BME280;45056;47.602;9.886;2023-04-27T13:03:43;92994.66;;;18.77;37.76
59289;BME280;45056;47.602;9.886;2023-04-27T13:06:11;92984.38;;;18.78;37.56
59289;BME280;45056;47.602;9.886;2023-04-27T13:08:40;92985.13;;;18.78;38.30
59289;BME280;45056;47.602;9.886;2023-04-27T13:11:08;92989.91;;;18.83;37.30
59289;BME280;45056;47.602;9.886;2023-04-27T13:13:36;92990.16;;;18.85;37.30
59289;BME280;45056;47.602;9.886;2023-04-27T13:16:05;92988.16;;;18.80;37.41
59289;BME280;45056;47.602;9.886;2023-04-27T13:18:33;92980.84;;;18.71;37.59